31.7°F
Current conditions from King Hill
Updated every 5 minutes
 
  Saturday November 1, 2014

Station Historical Data
Daily Summary for May 7, 2012 Units:  Both    English   Metric
« Previous Day
Next Day »
Daily Weekly Monthly Yearly Custom
  High: Low: Average:
Temperature: 71.3 °F /  21.8 °C 35.0 °F /  1.7 °C 55.3 °F /  12.9 °C
Dew Point: 41.9 °F /  5.5 °C 22.8 °F /  -5.1 °C 31.4 °F /  -0.3 °C
Humidity: 71% 19% 44%
Wind Speed: 7.0mph /  11.3km/h - 2.4mph /  3.9km/h
Wind Gust: 12.0mph /  19.3km/h - -
Wind- - SSW
Pressure: 30.11 in /  1019.5 hPa 29.90 in /  1012.4 hPa -
Precipitation: 0.00 in /  0 mm    
Historical Graphs
 
 
Tabular Data for May 7, 2012
Time Temperature Dew Point Pressure Wind Wind Speed Wind Gust Humidity Daily Rainfall
00:00 44.5 °F /  6.9 °C 27.5 °F /  -2.5 °C 30.09in /  1018.8hPa Calm     51% 0.00in /  0mm
00:05 43.9 °F /  6.6 °C 27.4 °F /  -2.6 °C 30.09in /  1018.8hPa Calm     52% 0.00in /  0mm
00:15 42.6 °F /  5.9 °C 26.2 °F /  -3.2 °C 30.09in /  1018.8hPa Calm     52% 0.00in /  0mm
00:20 42.3 °F /  5.7 °C 25.9 °F /  -3.4 °C 30.09in /  1018.8hPa Calm     52% 0.00in /  0mm
00:30 41.0 °F /  5 °C 26.9 °F /  -2.8 °C 30.09in /  1018.8hPa Calm     57% 0.00in /  0mm
00:35 40.5 °F /  4.7 °C 26.5 °F /  -3.1 °C 30.08in /  1018.5hPa Calm     57% 0.00in /  0mm
00:40 40.4 °F /  4.7 °C 25.5 °F /  -3.6 °C 30.09in /  1018.8hPa Calm     55% 0.00in /  0mm
00:45 40.5 °F /  4.7 °C 26.0 °F /  -3.3 °C 30.08in /  1018.5hPa Calm     56% 0.00in /  0mm
00:50 40.6 °F /  4.8 °C 26.1 °F /  -3.3 °C 30.08in /  1018.5hPa Calm     56% 0.00in /  0mm
01:00 40.9 °F /  4.9 °C 26.8 °F /  -2.9 °C 30.08in /  1018.5hPa Calm     57% 0.00in /  0mm
01:10 40.4 °F /  4.7 °C 27.6 °F /  -2.4 °C 30.08in /  1018.5hPa Calm     60% 0.00in /  0mm
01:15 40.1 °F /  4.5 °C 26.5 °F /  -3.1 °C 30.08in /  1018.5hPa Calm     58% 0.00in /  0mm
01:20 40.4 °F /  4.7 °C 25.9 °F /  -3.4 °C 30.08in /  1018.5hPa Calm     56% 0.00in /  0mm
01:25 40.6 °F /  4.8 °C 25.7 °F /  -3.5 °C 30.08in /  1018.5hPa Calm     55% 0.00in /  0mm
01:30 40.8 °F /  4.9 °C 26.3 °F /  -3.2 °C 30.08in /  1018.5hPa Calm     56% 0.00in /  0mm
01:40 41.0 °F /  5 °C 26.5 °F /  -3.1 °C 30.08in /  1018.5hPa Calm     56% 0.00in /  0mm
01:45 40.7 °F /  4.8 °C 26.2 °F /  -3.2 °C 30.08in /  1018.5hPa Calm     56% 0.00in /  0mm
01:55 40.3 °F /  4.6 °C 26.7 °F /  -2.9 °C 30.08in /  1018.5hPa Calm     58% 0.00in /  0mm
02:00 40.1 °F /  4.5 °C 26.9 °F /  -2.8 °C 30.08in /  1018.5hPa Calm     59% 0.00in /  0mm
02:05 39.7 °F /  4.3 °C 26.1 °F /  -3.3 °C 30.08in /  1018.5hPa Calm     58% 0.00in /  0mm
02:10 39.6 °F /  4.2 °C 25.6 °F /  -3.6 °C 30.08in /  1018.5hPa Calm     57% 0.00in /  0mm
02:15 39.6 °F /  4.2 °C 25.2 °F /  -3.8 °C 30.08in /  1018.5hPa Calm     56% 0.00in /  0mm
02:20 39.7 °F /  4.3 °C 26.1 °F /  -3.3 °C 30.08in /  1018.5hPa Calm     58% 0.00in /  0mm
02:25 39.6 °F /  4.2 °C 25.6 °F /  -3.6 °C 30.08in /  1018.5hPa Calm     57% 0.00in /  0mm
02:30 39.5 °F /  4.2 °C 25.9 °F /  -3.4 °C 30.08in /  1018.5hPa Calm     58% 0.00in /  0mm
02:35 39.5 °F /  4.2 °C 25.9 °F /  -3.4 °C 30.08in /  1018.5hPa Calm     58% 0.00in /  0mm
02:45 39.4 °F /  4.1 °C 26.3 °F /  -3.2 °C 30.08in /  1018.5hPa Calm     59% 0.00in /  0mm
02:50 39.2 °F /  4 °C 26.5 °F /  -3.1 °C 30.08in /  1018.5hPa Calm     60% 0.00in /  0mm
02:55 39.1 °F /  3.9 °C 26.0 °F /  -3.3 °C 30.08in /  1018.5hPa Calm     59% 0.00in /  0mm
03:00 39.2 °F /  4 °C 27.7 °F /  -2.4 °C 30.08in /  1018.5hPa Calm     63% 0.00in /  0mm
03:05 38.9 °F /  3.8 °C 26.6 °F /  -3 °C 30.08in /  1018.5hPa Calm     61% 0.00in /  0mm
03:10 38.6 °F /  3.7 °C 26.3 °F /  -3.2 °C 30.08in /  1018.5hPa Calm     61% 0.00in /  0mm
03:15 38.4 °F /  3.6 °C 27.3 °F /  -2.6 °C 30.08in /  1018.5hPa Calm     64% 0.00in /  0mm
03:20 38.5 °F /  3.6 °C 28.1 °F /  -2.2 °C 30.08in /  1018.5hPa Calm     66% 0.00in /  0mm
03:25 39.0 °F /  3.9 °C 27.9 °F /  -2.3 °C 30.08in /  1018.5hPa Calm     64% 0.00in /  0mm
03:30 39.7 °F /  4.3 °C 28.9 °F /  -1.7 °C 30.08in /  1018.5hPa Calm   2.0mph /  3.2km/h 65% 0.00in /  0mm
03:35 40.4 °F /  4.7 °C 28.8 °F /  -1.8 °C 30.08in /  1018.5hPa Calm   2.0mph /  3.2km/h 63% 0.00in /  0mm
03:45 40.6 °F /  4.8 °C 29.0 °F /  -1.7 °C 30.08in /  1018.5hPa Calm     63% 0.00in /  0mm
03:55 39.1 °F /  3.9 °C 27.6 °F /  -2.4 °C 30.08in /  1018.5hPa Calm     63% 0.00in /  0mm
04:00 38.3 °F /  3.5 °C 27.6 °F /  -2.4 °C 30.08in /  1018.5hPa Calm     65% 0.00in /  0mm
04:05 37.5 °F /  3.1 °C 27.5 °F /  -2.5 °C 30.08in /  1018.5hPa Calm     67% 0.00in /  0mm
04:10 37.0 °F /  2.8 °C 27.4 °F /  -2.6 °C 30.08in /  1018.5hPa Calm     68% 0.00in /  0mm
04:15 36.8 °F /  2.7 °C 27.9 °F /  -2.3 °C 30.08in /  1018.5hPa Calm     70% 0.00in /  0mm
04:20 36.6 °F /  2.6 °C 28.1 °F /  -2.2 °C 30.08in /  1018.5hPa Calm     71% 0.00in /  0mm
04:30 36.4 °F /  2.4 °C 27.6 °F /  -2.4 °C 30.08in /  1018.5hPa Calm     70% 0.00in /  0mm
04:35 36.0 °F /  2.2 °C 26.8 °F /  -2.9 °C 30.08in /  1018.5hPa Calm     69% 0.00in /  0mm
04:40 35.9 °F /  2.2 °C 26.4 °F /  -3.1 °C 30.08in /  1018.5hPa Calm     68% 0.00in /  0mm
04:45 36.0 °F /  2.2 °C 26.8 °F /  -2.9 °C 30.08in /  1018.5hPa Calm     69% 0.00in /  0mm
04:50 35.7 °F /  2.1 °C 26.5 °F /  -3.1 °C 30.08in /  1018.5hPa Calm     69% 0.00in /  0mm
04:55 35.6 °F /  2 °C 25.7 °F /  -3.5 °C 30.09in /  1018.8hPa Calm     67% 0.00in /  0mm
05:00 35.7 °F /  2.1 °C 25.8 °F /  -3.4 °C 30.09in /  1018.8hPa Calm     67% 0.00in /  0mm
05:05 36.2 °F /  2.3 °C 25.9 °F /  -3.4 °C 30.09in /  1018.8hPa Calm     66% 0.00in /  0mm
05:10 36.5 °F /  2.5 °C 26.6 °F /  -3 °C 30.10in /  1019.2hPa Calm     67% 0.00in /  0mm
05:15 36.4 °F /  2.4 °C 26.1 °F /  -3.3 °C 30.10in /  1019.2hPa Calm     66% 0.00in /  0mm
05:25 37.0 °F /  2.8 °C 26.0 °F /  -3.3 °C 30.10in /  1019.2hPa Calm     64% 0.00in /  0mm
05:30 36.8 °F /  2.7 °C 26.5 °F /  -3.1 °C 30.10in /  1019.2hPa Calm     66% 0.00in /  0mm
05:35 36.9 °F /  2.7 °C 27.0 °F /  -2.8 °C 30.10in /  1019.2hPa Calm     67% 0.00in /  0mm
05:40 36.7 °F /  2.6 °C 26.4 °F /  -3.1 °C 30.10in /  1019.2hPa Calm     66% 0.00in /  0mm
05:45 36.0 °F /  2.2 °C 26.1 °F /  -3.3 °C 30.10in /  1019.2hPa Calm     67% 0.00in /  0mm
05:50 35.4 °F /  1.9 °C 25.9 °F /  -3.4 °C 30.10in /  1019.2hPa Calm     68% 0.00in /  0mm
05:55 35.1 °F /  1.7 °C 25.6 °F /  -3.6 °C 30.10in /  1019.2hPa Calm     68% 0.00in /  0mm
06:00 35.1 °F /  1.7 °C 26.0 °F /  -3.3 °C 30.10in /  1019.2hPa Calm     69% 0.00in /  0mm
06:05 35.0 °F /  1.7 °C 26.6 °F /  -3 °C 30.10in /  1019.2hPa Calm     71% 0.00in /  0mm
06:10 35.1 °F /  1.7 °C 26.6 °F /  -3 °C 30.10in /  1019.2hPa Calm     71% 0.00in /  0mm
06:15 35.4 °F /  1.9 °C 26.6 °F /  -3 °C 30.10in /  1019.2hPa Calm     70% 0.00in /  0mm
06:20 35.9 °F /  2.2 °C 27.1 °F /  -2.7 °C 30.10in /  1019.2hPa Calm     70% 0.00in /  0mm
06:25 36.5 °F /  2.5 °C 28.0 °F /  -2.2 °C 30.10in /  1019.2hPa Calm     71% 0.00in /  0mm
06:30 36.5 °F /  2.5 °C 28.0 °F /  -2.2 °C 30.10in /  1019.2hPa Calm     71% 0.00in /  0mm
06:35 36.3 °F /  2.4 °C 27.5 °F /  -2.5 °C 30.10in /  1019.2hPa Calm     70% 0.00in /  0mm
06:40 36.2 °F /  2.3 °C 27.4 °F /  -2.6 °C 30.10in /  1019.2hPa Calm     70% 0.00in /  0mm
06:45 36.2 °F /  2.3 °C 27.7 °F /  -2.4 °C 30.10in /  1019.2hPa Calm     71% 0.00in /  0mm
06:50 36.8 °F /  2.7 °C 27.6 °F /  -2.4 °C 30.10in /  1019.2hPa Calm     69% 0.00in /  0mm
06:55 37.4 °F /  3 °C 28.5 °F /  -1.9 °C 30.10in /  1019.2hPa Calm     70% 0.00in /  0mm
07:00 38.2 °F /  3.4 °C 28.2 °F /  -2.1 °C 30.10in /  1019.2hPa Calm     67% 0.00in /  0mm
07:05 39.3 °F /  4.1 °C 28.9 °F /  -1.7 °C 30.10in /  1019.2hPa Calm     66% 0.00in /  0mm
07:10 40.2 °F /  4.6 °C 29.8 °F /  -1.2 °C 30.10in /  1019.2hPa Calm     66% 0.00in /  0mm
07:15 41.2 °F /  5.1 °C 30.7 °F /  -0.7 °C 30.10in /  1019.2hPa Calm     66% 0.00in /  0mm
07:20 42.2 °F /  5.7 °C 30.9 °F /  -0.6 °C 30.11in /  1019.5hPa Calm     64% 0.00in /  0mm
07:25 43.1 °F /  6.2 °C 31.8 °F /  -0.1 °C 30.10in /  1019.2hPa Calm     64% 0.00in /  0mm
07:30 44.0 °F /  6.7 °C 32.6 °F /  0.3 °C 30.11in /  1019.5hPa Calm     64% 0.00in /  0mm
07:40 46.0 °F /  7.8 °C 34.9 °F /  1.6 °C 30.10in /  1019.2hPa Calm     65% 0.00in /  0mm
07:50 48.0 °F /  8.9 °C 33.1 °F /  0.6 °C 30.10in /  1019.2hPa Calm     56% 0.00in /  0mm
07:55 49.1 °F /  9.5 °C 35.0 °F /  1.7 °C 30.10in /  1019.2hPa Calm     58% 0.00in /  0mm
08:00 49.8 °F /  9.9 °C 35.2 °F /  1.8 °C 30.10in /  1019.2hPa Calm     57% 0.00in /  0mm
08:10 50.9 °F /  10.5 °C 36.2 °F /  2.3 °C 30.10in /  1019.2hPa Calm     57% 0.00in /  0mm
08:20 52.8 °F /  11.6 °C 38.9 °F /  3.8 °C 30.09in /  1018.8hPa Calm     59% 0.00in /  0mm
08:25 53.4 °F /  11.9 °C 38.1 °F /  3.4 °C 30.10in /  1019.2hPa Calm     56% 0.00in /  0mm
08:35 54.1 °F /  12.3 °C 34.3 °F /  1.3 °C 30.10in /  1019.2hPa Calm   2.0mph /  3.2km/h 47% 0.00in /  0mm
08:40 54.6 °F /  12.6 °C 35.8 °F /  2.1 °C 30.10in /  1019.2hPa Calm   2.0mph /  3.2km/h 49% 0.00in /  0mm
08:45 54.9 °F /  12.7 °C 34.5 °F /  1.4 °C 30.10in /  1019.2hPa Calm   1.0mph /  1.6km/h 46% 0.00in /  0mm
08:55 55.9 °F /  13.3 °C 33.7 °F /  0.9 °C 30.11in /  1019.5hPa Calm   2.0mph /  3.2km/h 43% 0.00in /  0mm
09:00 56.7 °F /  13.7 °C 32.7 °F /  0.4 °C 30.11in /  1019.5hPa Calm   1.0mph /  1.6km/h 40% 0.00in /  0mm
09:05 57.0 °F /  13.9 °C 32.3 °F /  0.2 °C 30.11in /  1019.5hPa Calm   1.0mph /  1.6km/h 39% 0.00in /  0mm
09:10 57.3 °F /  14.1 °C 32.6 °F /  0.3 °C 30.11in /  1019.5hPa ENE 1.0mph /  1.6km/h 3.0mph /  4.8km/h 39% 0.00in /  0mm
09:15 57.7 °F /  14.3 °C 32.9 °F /  0.5 °C 30.11in /  1019.5hPa Calm   3.0mph /  4.8km/h 39% 0.00in /  0mm
09:20 58.0 °F /  14.4 °C 31.2 °F /  -0.4 °C 30.11in /  1019.5hPa Calm   3.0mph /  4.8km/h 36% 0.00in /  0mm
09:30 58.1 °F /  14.5 °C 32.6 °F /  0.3 °C 30.11in /  1019.5hPa Calm   1.0mph /  1.6km/h 38% 0.00in /  0mm
09:35 58.6 °F /  14.8 °C 33.1 °F /  0.6 °C 30.11in /  1019.5hPa Calm   1.0mph /  1.6km/h 38% 0.00in /  0mm
09:40 59.3 °F /  15.2 °C 34.4 °F /  1.3 °C 30.11in /  1019.5hPa Calm   1.0mph /  1.6km/h 39% 0.00in /  0mm
09:45 60.1 °F /  15.6 °C 32.4 °F /  0.2 °C 30.11in /  1019.5hPa Calm   1.0mph /  1.6km/h 35% 0.00in /  0mm
09:50 60.3 °F /  15.7 °C 32.5 °F /  0.3 °C 30.11in /  1019.5hPa Calm   1.0mph /  1.6km/h 35% 0.00in /  0mm
10:00 61.2 °F /  16.2 °C 33.3 °F /  0.7 °C 30.11in /  1019.5hPa Calm   1.0mph /  1.6km/h 35% 0.00in /  0mm
10:05 61.6 °F /  16.4 °C 28.2 °F /  -2.1 °C 30.11in /  1019.5hPa NNE 2.0mph /  3.2km/h 8.0mph /  12.9km/h 28% 0.00in /  0mm
10:10 62.0 °F /  16.7 °C 29.4 °F /  -1.4 °C 30.11in /  1019.5hPa NNE 2.0mph /  3.2km/h 8.0mph /  12.9km/h 29% 0.00in /  0mm
10:15 62.1 °F /  16.7 °C 26.8 °F /  -2.9 °C 30.11in /  1019.5hPa East 1.0mph /  1.6km/h 5.0mph /  8km/h 26% 0.00in /  0mm
10:25 62.1 °F /  16.7 °C 27.7 °F /  -2.4 °C 30.10in /  1019.2hPa ENE 2.0mph /  3.2km/h 8.0mph /  12.9km/h 27% 0.00in /  0mm
10:40 62.7 °F /  17.1 °C 29.1 °F /  -1.6 °C 30.10in /  1019.2hPa NNE 2.0mph /  3.2km/h 6.0mph /  9.7km/h 28% 0.00in /  0mm
10:50 63.2 °F /  17.3 °C 29.6 °F /  -1.3 °C 30.09in /  1018.8hPa Calm   7.0mph /  11.3km/h 28% 0.00in /  0mm
11:00 64.6 °F /  18.1 °C 29.0 °F /  -1.7 °C 30.09in /  1018.8hPa ESE 1.0mph /  1.6km/h 7.0mph /  11.3km/h 26% 0.00in /  0mm
11:05 64.4 °F /  18 °C 28.8 °F /  -1.8 °C 30.09in /  1018.8hPa Calm   7.0mph /  11.3km/h 26% 0.00in /  0mm
11:10 64.0 °F /  17.8 °C 30.3 °F /  -0.9 °C 30.09in /  1018.8hPa WNW 1.0mph /  1.6km/h 6.0mph /  9.7km/h 28% 0.00in /  0mm
11:15 64.2 °F /  17.9 °C 27.7 °F /  -2.4 °C 30.09in /  1018.8hPa NNE 1.0mph /  1.6km/h 7.0mph /  11.3km/h 25% 0.00in /  0mm
11:20 64.5 °F /  18.1 °C 27.9 °F /  -2.3 °C 30.09in /  1018.8hPa NNE 1.0mph /  1.6km/h 7.0mph /  11.3km/h 25% 0.00in /  0mm
11:25 65.3 °F /  18.5 °C 24.4 °F /  -4.2 °C 30.09in /  1018.8hPa Calm   7.0mph /  11.3km/h 21% 0.00in /  0mm
11:30 65.2 °F /  18.4 °C 25.4 °F /  -3.7 °C 30.09in /  1018.8hPa ENE 1.0mph /  1.6km/h 7.0mph /  11.3km/h 22% 0.00in /  0mm
11:40 65.5 °F /  18.6 °C 24.5 °F /  -4.2 °C 30.08in /  1018.5hPa NNW 1.0mph /  1.6km/h 6.0mph /  9.7km/h 21% 0.00in /  0mm
11:45 65.5 °F /  18.6 °C 25.7 °F /  -3.5 °C 30.08in /  1018.5hPa Calm   6.0mph /  9.7km/h 22% 0.00in /  0mm
11:50 65.7 °F /  18.7 °C 26.9 °F /  -2.8 °C 30.08in /  1018.5hPa North 1.0mph /  1.6km/h 8.0mph /  12.9km/h 23% 0.00in /  0mm
11:55 66.3 °F /  19.1 °C 30.4 °F /  -0.9 °C 30.07in /  1018.2hPa Calm   9.0mph /  14.5km/h 26% 0.00in /  0mm
12:05 67.1 °F /  19.5 °C 24.7 °F /  -4.1 °C 30.07in /  1018.2hPa North 1.0mph /  1.6km/h 9.0mph /  14.5km/h 20% 0.00in /  0mm
12:10 67.6 °F /  19.8 °C 25.1 °F /  -3.8 °C 30.07in /  1018.2hPa NE 4.0mph /  6.4km/h 8.0mph /  12.9km/h 20% 0.00in /  0mm
12:15 67.1 °F /  19.5 °C 24.7 °F /  -4.1 °C 30.07in /  1018.2hPa East 2.0mph /  3.2km/h 8.0mph /  12.9km/h 20% 0.00in /  0mm
12:20 66.8 °F /  19.3 °C 26.7 °F /  -2.9 °C 30.07in /  1018.2hPa Calm   7.0mph /  11.3km/h 22% 0.00in /  0mm
12:25 66.3 °F /  19.1 °C 22.8 °F /  -5.1 °C 30.06in /  1017.8hPa ESE 6.0mph /  9.7km/h 9.0mph /  14.5km/h 19% 0.00in /  0mm
12:30 66.2 °F /  19 °C 24.0 °F /  -4.4 °C 30.06in /  1017.8hPa NNW 1.0mph /  1.6km/h 9.0mph /  14.5km/h 20% 0.00in /  0mm
12:35 66.7 °F /  19.3 °C 23.1 °F /  -4.9 °C 30.06in /  1017.8hPa Calm   5.0mph /  8km/h 19% 0.00in /  0mm
12:40 67.2 °F /  19.6 °C 23.6 °F /  -4.7 °C 30.06in /  1017.8hPa NNE 3.0mph /  4.8km/h 7.0mph /  11.3km/h 19% 0.00in /  0mm
12:45 67.2 °F /  19.6 °C 24.8 °F /  -4 °C 30.06in /  1017.8hPa Calm   9.0mph /  14.5km/h 20% 0.00in /  0mm
12:50 67.6 °F /  19.8 °C 23.9 °F /  -4.5 °C 30.06in /  1017.8hPa Calm   9.0mph /  14.5km/h 19% 0.00in /  0mm
13:00 67.1 °F /  19.5 °C 24.7 °F /  -4.1 °C 30.05in /  1017.5hPa Calm   9.0mph /  14.5km/h 20% 0.00in /  0mm
13:05 66.8 °F /  19.3 °C 29.9 °F /  -1.2 °C 30.05in /  1017.5hPa WNW 5.0mph /  8km/h 9.0mph /  14.5km/h 25% 0.00in /  0mm
13:10 66.7 °F /  19.3 °C 31.7 °F /  -0.2 °C 30.05in /  1017.5hPa WNW 5.0mph /  8km/h 11.0mph /  17.7km/h 27% 0.00in /  0mm
13:15 66.7 °F /  19.3 °C 35.1 °F /  1.7 °C 30.04in /  1017.2hPa WNW 5.0mph /  8km/h 11.0mph /  17.7km/h 31% 0.00in /  0mm
13:20 66.7 °F /  19.3 °C 33.5 °F /  0.8 °C 30.04in /  1017.2hPa West 5.0mph /  8km/h 12.0mph /  19.3km/h 29% 0.00in /  0mm
13:25 66.5 °F /  19.2 °C 33.3 °F /  0.7 °C 30.04in /  1017.2hPa WNW 7.0mph /  11.3km/h 12.0mph /  19.3km/h 29% 0.00in /  0mm
13:30 66.8 °F /  19.3 °C 31.8 °F /  -0.1 °C 30.04in /  1017.2hPa WNW 4.0mph /  6.4km/h 9.0mph /  14.5km/h 27% 0.00in /  0mm
13:35 67.3 °F /  19.6 °C 35.6 °F /  2 °C 30.04in /  1017.2hPa NNW 5.0mph /  8km/h 9.0mph /  14.5km/h 31% 0.00in /  0mm
13:40 67.0 °F /  19.4 °C 31.9 °F /  -0.1 °C 30.04in /  1017.2hPa West 7.0mph /  11.3km/h 11.0mph /  17.7km/h 27% 0.00in /  0mm
13:45 66.9 °F /  19.4 °C 34.5 °F /  1.4 °C 30.04in /  1017.2hPa WSW 6.0mph /  9.7km/h 11.0mph /  17.7km/h 30% 0.00in /  0mm
13:50 66.7 °F /  19.3 °C 32.6 °F /  0.3 °C 30.04in /  1017.2hPa West 2.0mph /  3.2km/h 11.0mph /  17.7km/h 28% 0.00in /  0mm
13:55 67.3 °F /  19.6 °C 33.1 °F /  0.6 °C 30.04in /  1017.2hPa NW 4.0mph /  6.4km/h 9.0mph /  14.5km/h 28% 0.00in /  0mm
14:00 67.3 °F /  19.6 °C 36.5 °F /  2.5 °C 30.03in /  1016.8hPa NW 3.0mph /  4.8km/h 9.0mph /  14.5km/h 32% 0.00in /  0mm
14:05 67.5 °F /  19.7 °C 34.1 °F /  1.2 °C 30.03in /  1016.8hPa West 1.0mph /  1.6km/h 9.0mph /  14.5km/h 29% 0.00in /  0mm
14:10 68.1 °F /  20.1 °C 31.9 °F /  -0.1 °C 30.03in /  1016.8hPa NW 5.0mph /  8km/h 10.0mph /  16.1km/h 26% 0.00in /  0mm
14:15 68.3 °F /  20.2 °C 34.8 °F /  1.6 °C 30.03in /  1016.8hPa WNW 3.0mph /  4.8km/h 10.0mph /  16.1km/h 29% 0.00in /  0mm
14:20 69.0 °F /  20.6 °C 34.6 °F /  1.4 °C 30.03in /  1016.8hPa NNW 1.0mph /  1.6km/h 8.0mph /  12.9km/h 28% 0.00in /  0mm
14:25 69.5 °F /  20.8 °C 35.0 °F /  1.7 °C 30.03in /  1016.8hPa Calm   6.0mph /  9.7km/h 28% 0.00in /  0mm
14:30 69.6 °F /  20.9 °C 31.2 °F /  -0.4 °C 30.03in /  1016.8hPa WNW 1.0mph /  1.6km/h 6.0mph /  9.7km/h 24% 0.00in /  0mm
14:35 68.9 °F /  20.5 °C 32.6 °F /  0.3 °C 30.02in /  1016.5hPa NW 4.0mph /  6.4km/h 8.0mph /  12.9km/h 26% 0.00in /  0mm
14:45 68.8 °F /  20.4 °C 30.6 °F /  -0.8 °C 30.02in /  1016.5hPa NNW 3.0mph /  4.8km/h 9.0mph /  14.5km/h 24% 0.00in /  0mm
14:50 69.4 °F /  20.8 °C 33.0 °F /  0.6 °C 30.02in /  1016.5hPa Calm   8.0mph /  12.9km/h 26% 0.00in /  0mm
14:55 70.1 °F /  21.2 °C 32.7 °F /  0.4 °C 30.02in /  1016.5hPa North 1.0mph /  1.6km/h 6.0mph /  9.7km/h 25% 0.00in /  0mm
15:05 70.0 °F /  21.1 °C 33.6 °F /  0.9 °C 30.01in /  1016.1hPa Calm   6.0mph /  9.7km/h 26% 0.00in /  0mm
15:10 70.1 °F /  21.2 °C 33.6 °F /  0.9 °C 30.01in /  1016.1hPa WNW 3.0mph /  4.8km/h 5.0mph /  8km/h 26% 0.00in /  0mm
15:15 69.8 °F /  21 °C 34.3 °F /  1.3 °C 30.01in /  1016.1hPa WSW 1.0mph /  1.6km/h 7.0mph /  11.3km/h 27% 0.00in /  0mm
15:20 70.1 °F /  21.2 °C 32.7 °F /  0.4 °C 30.01in /  1016.1hPa WNW 1.0mph /  1.6km/h 7.0mph /  11.3km/h 25% 0.00in /  0mm
15:25 70.5 °F /  21.4 °C 33.0 °F /  0.6 °C 30.01in /  1016.1hPa NW 2.0mph /  3.2km/h 8.0mph /  12.9km/h 25% 0.00in /  0mm
15:30 70.0 °F /  21.1 °C 32.6 °F /  0.3 °C 30.01in /  1016.1hPa WNW 4.0mph /  6.4km/h 8.0mph /  12.9km/h 25% 0.00in /  0mm
15:35 69.3 °F /  20.7 °C 31.0 °F /  -0.6 °C 30.00in /  1015.8hPa NW 2.0mph /  3.2km/h 7.0mph /  11.3km/h 24% 0.00in /  0mm
15:45 69.5 °F /  20.8 °C 33.1 °F /  0.6 °C 30.00in /  1015.8hPa Calm   7.0mph /  11.3km/h 26% 0.00in /  0mm
15:50 70.1 °F /  21.2 °C 35.5 °F /  1.9 °C 30.00in /  1015.8hPa Calm   5.0mph /  8km/h 28% 0.00in /  0mm
15:55 70.4 °F /  21.3 °C 30.9 °F /  -0.6 °C 30.00in /  1015.8hPa NNE 1.0mph /  1.6km/h 6.0mph /  9.7km/h 23% 0.00in /  0mm
16:00 70.7 °F /  21.5 °C 35.1 °F /  1.7 °C 30.00in /  1015.8hPa NW 1.0mph /  1.6km/h 6.0mph /  9.7km/h 27% 0.00in /  0mm
16:05 70.7 °F /  21.5 °C 33.2 °F /  0.7 °C 29.99in /  1015.5hPa NNE 1.0mph /  1.6km/h 6.0mph /  9.7km/h 25% 0.00in /  0mm
16:10 70.5 °F /  21.4 °C 34.9 °F /  1.6 °C 29.99in /  1015.5hPa Calm   4.0mph /  6.4km/h 27% 0.00in /  0mm
16:20 70.5 °F /  21.4 °C 33.0 °F /  0.6 °C 29.98in /  1015.1hPa Calm   6.0mph /  9.7km/h 25% 0.00in /  0mm
16:30 71.1 °F /  21.7 °C 39.0 °F /  3.9 °C 29.98in /  1015.1hPa Calm   3.0mph /  4.8km/h 31% 0.00in /  0mm
16:35 71.3 °F /  21.8 °C 33.7 °F /  0.9 °C 29.98in /  1015.1hPa NW 1.0mph /  1.6km/h 5.0mph /  8km/h 25% 0.00in /  0mm
16:40 70.9 °F /  21.6 °C 32.3 °F /  0.2 °C 29.98in /  1015.1hPa Calm   5.0mph /  8km/h 24% 0.00in /  0mm
16:45 70.6 °F /  21.4 °C 34.1 °F /  1.2 °C 29.97in /  1014.8hPa Calm   2.0mph /  3.2km/h 26% 0.00in /  0mm
16:50 70.3 °F /  21.3 °C 33.8 °F /  1 °C 29.97in /  1014.8hPa Calm   2.0mph /  3.2km/h 26% 0.00in /  0mm
16:55 70.7 °F /  21.5 °C 34.2 °F /  1.2 °C 29.97in /  1014.8hPa NNE 1.0mph /  1.6km/h 4.0mph /  6.4km/h 26% 0.00in /  0mm
17:00 70.6 °F /  21.4 °C 35.0 °F /  1.7 °C 29.97in /  1014.8hPa Calm   4.0mph /  6.4km/h 27% 0.00in /  0mm
17:05 70.9 °F /  21.6 °C 32.3 °F /  0.2 °C 29.97in /  1014.8hPa Calm     24% 0.00in /  0mm
17:10 71.0 °F /  21.7 °C 32.4 °F /  0.2 °C 29.96in /  1014.4hPa SW 1.0mph /  1.6km/h 4.0mph /  6.4km/h 24% 0.00in /  0mm
17:15 70.8 °F /  21.6 °C 35.2 °F /  1.8 °C 29.96in /  1014.4hPa SW 1.0mph /  1.6km/h 6.0mph /  9.7km/h 27% 0.00in /  0mm
17:20 70.3 °F /  21.3 °C 32.8 °F /  0.4 °C 29.96in /  1014.4hPa Calm   6.0mph /  9.7km/h 25% 0.00in /  0mm
17:25 70.2 °F /  21.2 °C 32.8 °F /  0.4 °C 29.96in /  1014.4hPa Calm   6.0mph /  9.7km/h 25% 0.00in /  0mm
17:35 69.9 °F /  21.1 °C 33.5 °F /  0.8 °C 29.96in /  1014.4hPa Calm   6.0mph /  9.7km/h 26% 0.00in /  0mm
17:40 69.8 °F /  21 °C 33.4 °F /  0.8 °C 29.96in /  1014.4hPa SW 2.0mph /  3.2km/h 5.0mph /  8km/h 26% 0.00in /  0mm
17:45 69.7 °F /  20.9 °C 34.2 °F /  1.2 °C 29.96in /  1014.4hPa Calm   5.0mph /  8km/h 27% 0.00in /  0mm
17:50 69.2 °F /  20.7 °C 31.9 °F /  -0.1 °C 29.96in /  1014.4hPa Calm   4.0mph /  6.4km/h 25% 0.00in /  0mm
17:55 68.9 °F /  20.5 °C 33.6 °F /  0.9 °C 29.95in /  1014.1hPa Calm   4.0mph /  6.4km/h 27% 0.00in /  0mm
18:05 68.6 °F /  20.3 °C 32.4 °F /  0.2 °C 29.95in /  1014.1hPa Calm   5.0mph /  8km/h 26% 0.00in /  0mm
18:10 68.5 °F /  20.3 °C 35.0 °F /  1.7 °C 29.95in /  1014.1hPa Calm   5.0mph /  8km/h 29% 0.00in /  0mm
18:15 68.7 °F /  20.4 °C 32.5 °F /  0.3 °C 29.95in /  1014.1hPa Calm   4.0mph /  6.4km/h 26% 0.00in /  0mm
18:20 68.7 °F /  20.4 °C 34.3 °F /  1.3 °C 29.95in /  1014.1hPa Calm     28% 0.00in /  0mm
18:25 68.9 °F /  20.5 °C 33.6 °F /  0.9 °C 29.95in /  1014.1hPa SSW 1.0mph /  1.6km/h 5.0mph /  8km/h 27% 0.00in /  0mm
18:35 68.6 °F /  20.3 °C 36.0 °F /  2.2 °C 29.95in /  1014.1hPa Calm   3.0mph /  4.8km/h 30% 0.00in /  0mm
18:45 67.8 °F /  19.9 °C 37.7 °F /  3.2 °C 29.95in /  1014.1hPa Calm   1.0mph /  1.6km/h 33% 0.00in /  0mm
18:50 67.1 °F /  19.5 °C 37.8 °F /  3.2 °C 29.95in /  1014.1hPa Calm     34% 0.00in /  0mm
18:55 66.4 °F /  19.1 °C 38.7 °F /  3.7 °C 29.95in /  1014.1hPa Calm   1.0mph /  1.6km/h 36% 0.00in /  0mm
19:00 65.8 °F /  18.8 °C 38.1 °F /  3.4 °C 29.95in /  1014.1hPa Calm   1.0mph /  1.6km/h 36% 0.00in /  0mm
19:05 65.0 °F /  18.3 °C 39.5 °F /  4.2 °C 29.94in /  1013.8hPa Calm   1.0mph /  1.6km/h 39% 0.00in /  0mm
19:10 64.3 °F /  17.9 °C 37.5 °F /  3.1 °C 29.94in /  1013.8hPa Calm   1.0mph /  1.6km/h 37% 0.00in /  0mm
19:15 63.9 °F /  17.7 °C 37.1 °F /  2.8 °C 29.94in /  1013.8hPa Calm   1.0mph /  1.6km/h 37% 0.00in /  0mm
19:20 63.5 °F /  17.5 °C 39.4 °F /  4.1 °C 29.94in /  1013.8hPa Calm   1.0mph /  1.6km/h 41% 0.00in /  0mm
19:30 62.7 °F /  17.1 °C 38.0 °F /  3.3 °C 29.94in /  1013.8hPa Calm   1.0mph /  1.6km/h 40% 0.00in /  0mm
19:40 62.1 °F /  16.7 °C 38.1 °F /  3.4 °C 29.93in /  1013.4hPa Calm   1.0mph /  1.6km/h 41% 0.00in /  0mm
19:45 61.8 °F /  16.6 °C 41.9 °F /  5.5 °C 29.93in /  1013.4hPa Calm   1.0mph /  1.6km/h 48% 0.00in /  0mm
19:50 61.2 °F /  16.2 °C 38.5 °F /  3.6 °C 29.93in /  1013.4hPa Calm   1.0mph /  1.6km/h 43% 0.00in /  0mm
19:55 60.6 °F /  15.9 °C 37.4 °F /  3 °C 29.93in /  1013.4hPa Calm   1.0mph /  1.6km/h 42% 0.00in /  0mm
20:00 60.0 °F /  15.6 °C 40.8 °F /  4.9 °C 29.93in /  1013.4hPa Calm   1.0mph /  1.6km/h 49% 0.00in /  0mm
20:10 59.5 °F /  15.3 °C 37.6 °F /  3.1 °C 29.93in /  1013.4hPa Calm   3.0mph /  4.8km/h 44% 0.00in /  0mm
20:15 59.5 °F /  15.3 °C 38.2 °F /  3.4 °C 29.93in /  1013.4hPa Calm   3.0mph /  4.8km/h 45% 0.00in /  0mm
20:20 59.7 °F /  15.4 °C 38.3 °F /  3.5 °C 29.92in /  1013.1hPa Calm   4.0mph /  6.4km/h 45% 0.00in /  0mm
20:25 59.5 °F /  15.3 °C 38.7 °F /  3.7 °C 29.92in /  1013.1hPa Calm   4.0mph /  6.4km/h 46% 0.00in /  0mm
20:30 59.3 °F /  15.2 °C 37.4 °F /  3 °C 29.92in /  1013.1hPa Calm   3.0mph /  4.8km/h 44% 0.00in /  0mm
20:40 59.2 °F /  15.1 °C 37.3 °F /  2.9 °C 29.92in /  1013.1hPa Calm   1.0mph /  1.6km/h 44% 0.00in /  0mm
20:45 59.6 °F /  15.3 °C 37.7 °F /  3.2 °C 29.92in /  1013.1hPa Calm   3.0mph /  4.8km/h 44% 0.00in /  0mm
20:50 59.8 °F /  15.4 °C 37.3 °F /  2.9 °C 29.91in /  1012.8hPa Calm   3.0mph /  4.8km/h 43% 0.00in /  0mm
21:00 60.3 °F /  15.7 °C 35.9 °F /  2.2 °C 29.91in /  1012.8hPa Calm   6.0mph /  9.7km/h 40% 0.00in /  0mm
21:10 60.5 °F /  15.8 °C 37.3 °F /  2.9 °C 29.91in /  1012.8hPa Calm   3.0mph /  4.8km/h 42% 0.00in /  0mm
21:15 60.2 °F /  15.7 °C 37.0 °F /  2.8 °C 29.91in /  1012.8hPa Calm   1.0mph /  1.6km/h 42% 0.00in /  0mm
21:20 59.8 °F /  15.4 °C 36.1 °F /  2.3 °C 29.91in /  1012.8hPa Calm   1.0mph /  1.6km/h 41% 0.00in /  0mm
21:25 59.7 °F /  15.4 °C 36.6 °F /  2.6 °C 29.91in /  1012.8hPa Calm   2.0mph /  3.2km/h 42% 0.00in /  0mm
21:30 59.5 °F /  15.3 °C 37.0 °F /  2.8 °C 29.91in /  1012.8hPa Calm   2.0mph /  3.2km/h 43% 0.00in /  0mm
21:40 59.0 °F /  15 °C 37.7 °F /  3.2 °C 29.91in /  1012.8hPa Calm   1.0mph /  1.6km/h 45% 0.00in /  0mm
21:45 59.0 °F /  15 °C 36.5 °F /  2.5 °C 29.91in /  1012.8hPa SE 1.0mph /  1.6km/h 5.0mph /  8km/h 43% 0.00in /  0mm
21:50 59.0 °F /  15 °C 36.5 °F /  2.5 °C 29.91in /  1012.8hPa Calm   5.0mph /  8km/h 43% 0.00in /  0mm
21:55 58.9 °F /  14.9 °C 37.6 °F /  3.1 °C 29.90in /  1012.4hPa Calm     45% 0.00in /  0mm
22:00 58.3 °F /  14.6 °C 35.9 °F /  2.2 °C 29.90in /  1012.4hPa Calm     43% 0.00in /  0mm
22:05 58.1 °F /  14.5 °C 36.9 °F /  2.7 °C 29.90in /  1012.4hPa Calm   1.0mph /  1.6km/h 45% 0.00in /  0mm
22:15 57.5 °F /  14.2 °C 35.2 °F /  1.8 °C 29.90in /  1012.4hPa Calm   7.0mph /  11.3km/h 43% 0.00in /  0mm
22:20 57.6 °F /  14.2 °C 35.9 °F /  2.2 °C 29.90in /  1012.4hPa Calm   3.0mph /  4.8km/h 44% 0.00in /  0mm
22:25 57.8 °F /  14.3 °C 34.9 °F /  1.6 °C 29.90in /  1012.4hPa SSW 2.0mph /  3.2km/h 7.0mph /  11.3km/h 42% 0.00in /  0mm
22:30 58.1 °F /  14.5 °C 34.5 °F /  1.4 °C 29.90in /  1012.4hPa Calm   7.0mph /  11.3km/h 41% 0.00in /  0mm
22:35 58.3 °F /  14.6 °C 35.9 °F /  2.2 °C 29.90in /  1012.4hPa Calm   5.0mph /  8km/h 43% 0.00in /  0mm
22:40 58.2 °F /  14.6 °C 35.8 °F /  2.1 °C 29.90in /  1012.4hPa SSW 1.0mph /  1.6km/h 5.0mph /  8km/h 43% 0.00in /  0mm
22:50 57.5 °F /  14.2 °C 34.6 °F /  1.4 °C 29.90in /  1012.4hPa Calm   1.0mph /  1.6km/h 42% 0.00in /  0mm
22:55 57.2 °F /  14 °C 35.5 °F /  1.9 °C 29.91in /  1012.8hPa Calm   3.0mph /  4.8km/h 44% 0.00in /  0mm
23:00 57.5 °F /  14.2 °C 34.0 °F /  1.1 °C 29.91in /  1012.8hPa SSW 1.0mph /  1.6km/h 5.0mph /  8km/h 41% 0.00in /  0mm
23:05 58.0 °F /  14.4 °C 35.0 °F /  1.7 °C 29.91in /  1012.8hPa Calm   5.0mph /  8km/h 42% 0.00in /  0mm
23:10 58.0 °F /  14.4 °C 34.4 °F /  1.3 °C 29.90in /  1012.4hPa Calm   5.0mph /  8km/h 41% 0.00in /  0mm
23:15 58.2 °F /  14.6 °C 35.2 °F /  1.8 °C 29.90in /  1012.4hPa SSW 3.0mph /  4.8km/h 7.0mph /  11.3km/h 42% 0.00in /  0mm
23:25 58.4 °F /  14.7 °C 37.2 °F /  2.9 °C 29.91in /  1012.8hPa Calm   5.0mph /  8km/h 45% 0.00in /  0mm
23:30 58.1 °F /  14.5 °C 36.9 °F /  2.7 °C 29.91in /  1012.8hPa Calm   5.0mph /  8km/h 45% 0.00in /  0mm
23:35 57.4 °F /  14.1 °C 38.4 °F /  3.6 °C 29.91in /  1012.8hPa Calm   1.0mph /  1.6km/h 49% 0.00in /  0mm
23:40 56.9 °F /  13.8 °C 36.9 °F /  2.7 °C 29.91in /  1012.8hPa Calm     47% 0.00in /  0mm
23:45 56.6 °F /  13.7 °C 37.7 °F /  3.2 °C 29.91in /  1012.8hPa Calm     49% 0.00in /  0mm
23:50 56.3 °F /  13.5 °C 36.9 °F /  2.7 °C 29.91in /  1012.8hPa SSW 1.0mph /  1.6km/h 4.0mph /  6.4km/h 48% 0.00in /  0mm
23:55 57.2 °F /  14 °C 38.7 °F /  3.7 °C 29.91in /  1012.8hPa SSW 3.0mph /  4.8km/h 9.0mph /  14.5km/h 50% 0.00in /  0mm
Westford Weather
Compliments of Weather Underground

 
 
Current Radar Loop:

Copyright © WestfordWeather.net 2007-2014. All rights reserved.